sensor_id;sensor_type;location;lat;lon;timestamp;P1;durP1;ratioP1;P2;durP2;ratioP2
33802;SDS011;20110;53.120;5.786;2023-07-02T00:01:11;20.17;;;7.93;;
33802;SDS011;20110;53.120;5.786;2023-07-02T00:03:38;32.45;;;8.40;;
33802;SDS011;20110;53.120;5.786;2023-07-02T00:06:04;31.38;;;7.68;;
33802;SDS011;20110;53.120;5.786;2023-07-02T00:08:30;21.95;;;8.05;;
33802;SDS011;20110;53.120;5.786;2023-07-02T00:10:56;29.67;;;8.70;;
33802;SDS011;20110;53.120;5.786;2023-07-02T00:13:22;21.40;;;8.52;;
33802;SDS011;20110;53.120;5.786;2023-07-02T00:15:48;34.63;;;8.52;;
33802;SDS011;20110;53.120;5.786;2023-07-02T00:18:14;30.80;;;8.77;;
33802;SDS011;20110;53.120;5.786;2023-07-02T00:20:43;21.58;;;8.15;;
33802;SDS011;20110;53.120;5.786;2023-07-02T00:23:09;31.73;;;8.27;;
33802;SDS011;20110;53.120;5.786;2023-07-02T00:25:35;28.08;;;7.97;;
33802;SDS011;20110;53.120;5.786;2023-07-02T00:28:02;27.17;;;9.60;;
33802;SDS011;20110;53.120;5.786;2023-07-02T00:30:28;26.73;;;8.85;;
33802;SDS011;20110;53.120;5.786;2023-07-02T00:32:54;33.58;;;8.52;;
33802;SDS011;20110;53.120;5.786;2023-07-02T00:35:21;24.17;;;8.02;;
33802;SDS011;20110;53.120;5.786;2023-07-02T00:37:47;24.52;;;8.07;;
33802;SDS011;20110;53.120;5.786;2023-07-02T00:40:14;33.50;;;9.48;;
33802;SDS011;20110;53.120;5.786;2023-07-02T00:42:40;29.70;;;8.65;;
33802;SDS011;20110;53.120;5.786;2023-07-02T00:45:06;31.60;;;8.73;;
33802;SDS011;20110;53.120;5.786;2023-07-02T00:47:33;39.28;;;10.00;;
33802;SDS011;20110;53.120;5.786;2023-07-02T00:50:00;33.55;;;8.88;;
33802;SDS011;20110;53.120;5.786;2023-07-02T00:52:27;27.65;;;9.05;;
33802;SDS011;20110;53.120;5.786;2023-07-02T00:54:53;33.38;;;9.43;;
33802;SDS011;20110;53.120;5.786;2023-07-02T00:57:19;20.33;;;8.55;;
33802;SDS011;20110;53.120;5.786;2023-07-02T00:59:45;36.70;;;9.15;;
33802;SDS011;20110;53.120;5.786;2023-07-02T01:02:11;30.38;;;9.00;;
33802;SDS011;20110;53.120;5.786;2023-07-02T01:04:38;27.58;;;8.35;;
33802;SDS011;20110;53.120;5.786;2023-07-02T01:07:05;30.38;;;9.25;;
33802;SDS011;20110;53.120;5.786;2023-07-02T01:09:36;26.00;;;8.90;;
33802;SDS011;20110;53.120;5.786;2023-07-02T01:12:03;26.33;;;8.63;;
33802;SDS011;20110;53.120;5.786;2023-07-02T01:14:36;34.72;;;8.57;;
33802;SDS011;20110;53.120;5.786;2023-07-02T01:17:09;31.05;;;9.15;;
33802;SDS011;20110;53.120;5.786;2023-07-02T01:19:46;32.55;;;8.75;;
33802;SDS011;20110;53.120;5.786;2023-07-02T01:22:27;25.83;;;8.15;;
33802;SDS011;20110;53.120;5.786;2023-07-02T01:24:54;26.20;;;9.40;;
33802;SDS011;20110;53.120;5.786;2023-07-02T01:27:21;30.77;;;8.63;;
33802;SDS011;20110;53.120;5.786;2023-07-02T01:29:47;20.42;;;7.90;;
33802;SDS011;20110;53.120;5.786;2023-07-02T01:32:17;33.10;;;9.05;;
33802;SDS011;20110;53.120;5.786;2023-07-02T01:34:43;25.27;;;7.85;;
33802;SDS011;20110;53.120;5.786;2023-07-02T01:37:14;28.42;;;9.10;;
33802;SDS011;20110;53.120;5.786;2023-07-02T01:39:41;23.70;;;7.88;;
33802;SDS011;20110;53.120;5.786;2023-07-02T01:42:11;21.67;;;7.50;;
33802;SDS011;20110;53.120;5.786;2023-07-02T01:44:41;26.30;;;8.48;;
33802;SDS011;20110;53.120;5.786;2023-07-02T01:47:12;31.63;;;9.15;;
33802;SDS011;20110;53.120;5.786;2023-07-02T01:49:38;29.45;;;8.93;;
33802;SDS011;20110;53.120;5.786;2023-07-02T01:52:05;33.95;;;8.43;;
33802;SDS011;20110;53.120;5.786;2023-07-02T01:54:32;24.52;;;8.30;;
33802;SDS011;20110;53.120;5.786;2023-07-02T01:56:59;38.97;;;8.82;;
33802;SDS011;20110;53.120;5.786;2023-07-02T01:59:25;28.02;;;8.60;;
33802;SDS011;20110;53.120;5.786;2023-07-02T02:01:51;34.70;;;9.52;;
33802;SDS011;20110;53.120;5.786;2023-07-02T02:04:18;35.33;;;9.70;;
33802;SDS011;20110;53.120;5.786;2023-07-02T02:06:44;26.05;;;8.93;;
33802;SDS011;20110;53.120;5.786;2023-07-02T02:09:10;29.13;;;8.50;;
33802;SDS011;20110;53.120;5.786;2023-07-02T02:11:40;26.42;;;8.77;;
33802;SDS011;20110;53.120;5.786;2023-07-02T02:14:09;41.67;;;9.13;;
33802;SDS011;20110;53.120;5.786;2023-07-02T02:16:35;32.53;;;8.77;;
33802;SDS011;20110;53.120;5.786;2023-07-02T02:19:01;32.97;;;8.88;;
33802;SDS011;20110;53.120;5.786;2023-07-02T02:21:28;35.15;;;8.82;;
33802;SDS011;20110;53.120;5.786;2023-07-02T02:23:54;31.90;;;8.60;;
33802;SDS011;20110;53.120;5.786;2023-07-02T02:26:20;29.13;;;8.55;;
33802;SDS011;20110;53.120;5.786;2023-07-02T02:28:48;30.88;;;8.88;;
33802;SDS011;20110;53.120;5.786;2023-07-02T02:31:16;23.23;;;8.27;;
33802;SDS011;20110;53.120;5.786;2023-07-02T02:33:42;28.52;;;8.23;;
33802;SDS011;20110;53.120;5.786;2023-07-02T02:36:08;33.55;;;8.82;;
33802;SDS011;20110;53.120;5.786;2023-07-02T02:38:34;29.25;;;8.25;;
33802;SDS011;20110;53.120;5.786;2023-07-02T02:41:02;26.58;;;8.85;;
33802;SDS011;20110;53.120;5.786;2023-07-02T02:43:28;28.88;;;8.93;;
33802;SDS011;20110;53.120;5.786;2023-07-02T02:45:54;30.30;;;8.75;;
33802;SDS011;20110;53.120;5.786;2023-07-02T02:48:20;21.52;;;7.72;;
33802;SDS011;20110;53.120;5.786;2023-07-02T02:50:48;23.77;;;8.32;;
33802;SDS011;20110;53.120;5.786;2023-07-02T02:53:14;22.83;;;6.38;;
33802;SDS011;20110;53.120;5.786;2023-07-02T02:55:40;21.65;;;8.27;;
33802;SDS011;20110;53.120;5.786;2023-07-02T02:58:05;27.25;;;7.93;;
33802;SDS011;20110;53.120;5.786;2023-07-02T03:00:32;32.95;;;7.38;;
33802;SDS011;20110;53.120;5.786;2023-07-02T03:02:58;25.55;;;8.05;;
33802;SDS011;20110;53.120;5.786;2023-07-02T03:05:24;30.70;;;6.90;;
33802;SDS011;20110;53.120;5.786;2023-07-02T03:07:51;24.98;;;7.28;;
33802;SDS011;20110;53.120;5.786;2023-07-02T03:10:17;25.95;;;7.78;;
33802;SDS011;20110;53.120;5.786;2023-07-02T03:12:43;20.45;;;7.68;;
33802;SDS011;20110;53.120;5.786;2023-07-02T03:15:09;34.88;;;7.90;;
33802;SDS011;20110;53.120;5.786;2023-07-02T03:17:35;33.72;;;8.60;;
33802;SDS011;20110;53.120;5.786;2023-07-02T03:20:02;26.73;;;8.48;;
33802;SDS011;20110;53.120;5.786;2023-07-02T03:22:29;23.08;;;8.02;;
33802;SDS011;20110;53.120;5.786;2023-07-02T03:24:55;27.00;;;8.82;;
33802;SDS011;20110;53.120;5.786;2023-07-02T03:27:22;28.92;;;8.18;;
33802;SDS011;20110;53.120;5.786;2023-07-02T03:29:48;20.75;;;8.00;;
33802;SDS011;20110;53.120;5.786;2023-07-02T03:32:14;24.92;;;7.43;;
33802;SDS011;20110;53.120;5.786;2023-07-02T03:34:39;29.02;;;7.82;;
33802;SDS011;20110;53.120;5.786;2023-07-02T03:37:07;26.17;;;7.88;;
33802;SDS011;20110;53.120;5.786;2023-07-02T03:39:33;33.92;;;7.75;;
33802;SDS011;20110;53.120;5.786;2023-07-02T03:41:59;23.02;;;6.85;;
33802;SDS011;20110;53.120;5.786;2023-07-02T03:44:24;26.15;;;7.18;;
33802;SDS011;20110;53.120;5.786;2023-07-02T03:46:50;26.02;;;7.68;;
33802;SDS011;20110;53.120;5.786;2023-07-02T03:49:16;22.95;;;7.95;;
33802;SDS011;20110;53.120;5.786;2023-07-02T03:51:42;37.80;;;8.63;;
33802;SDS011;20110;53.120;5.786;2023-07-02T03:54:07;25.83;;;6.88;;
33802;SDS011;20110;53.120;5.786;2023-07-02T03:56:33;25.92;;;7.65;;
33802;SDS011;20110;53.120;5.786;2023-07-02T03:59:00;20.67;;;6.82;;
33802;SDS011;20110;53.120;5.786;2023-07-02T04:01:25;21.73;;;6.65;;
33802;SDS011;20110;53.120;5.786;2023-07-02T04:03:52;19.63;;;6.80;;
33802;SDS011;20110;53.120;5.786;2023-07-02T04:06:18;14.77;;;6.28;;
33802;SDS011;20110;53.120;5.786;2023-07-02T04:08:45;27.23;;;5.85;;
33802;SDS011;20110;53.120;5.786;2023-07-02T04:11:11;20.38;;;6.38;;
33802;SDS011;20110;53.120;5.786;2023-07-02T04:13:38;19.27;;;6.38;;
33802;SDS011;20110;53.120;5.786;2023-07-02T04:16:04;16.08;;;5.28;;
33802;SDS011;20110;53.120;5.786;2023-07-02T04:18:31;19.70;;;5.97;;
33802;SDS011;20110;53.120;5.786;2023-07-02T04:20:57;17.55;;;6.03;;
33802;SDS011;20110;53.120;5.786;2023-07-02T04:23:24;19.95;;;5.82;;
33802;SDS011;20110;53.120;5.786;2023-07-02T04:25:50;22.50;;;5.65;;
33802;SDS011;20110;53.120;5.786;2023-07-02T04:28:16;16.42;;;6.20;;
33802;SDS011;20110;53.120;5.786;2023-07-02T04:30:44;27.70;;;6.47;;
33802;SDS011;20110;53.120;5.786;2023-07-02T04:33:10;16.90;;;5.47;;
33802;SDS011;20110;53.120;5.786;2023-07-02T04:35:39;20.40;;;6.22;;
33802;SDS011;20110;53.120;5.786;2023-07-02T04:38:05;21.85;;;5.72;;
33802;SDS011;20110;53.120;5.786;2023-07-02T04:40:31;24.38;;;6.07;;
33802;SDS011;20110;53.120;5.786;2023-07-02T04:42:57;13.80;;;6.25;;
33802;SDS011;20110;53.120;5.786;2023-07-02T04:45:23;27.65;;;6.95;;
33802;SDS011;20110;53.120;5.786;2023-07-02T04:47:51;19.77;;;5.78;;
33802;SDS011;20110;53.120;5.786;2023-07-02T04:50:20;22.35;;;5.93;;
33802;SDS011;20110;53.120;5.786;2023-07-02T04:52:45;15.07;;;6.30;;
33802;SDS011;20110;53.120;5.786;2023-07-02T04:55:11;12.15;;;5.80;;
33802;SDS011;20110;53.120;5.786;2023-07-02T04:57:37;27.20;;;6.32;;
33802;SDS011;20110;53.120;5.786;2023-07-02T05:00:03;14.95;;;5.68;;
33802;SDS011;20110;53.120;5.786;2023-07-02T05:02:31;21.25;;;6.40;;
33802;SDS011;20110;53.120;5.786;2023-07-02T05:04:57;21.88;;;5.90;;
33802;SDS011;20110;53.120;5.786;2023-07-02T05:07:23;13.23;;;6.38;;
33802;SDS011;20110;53.120;5.786;2023-07-02T05:09:48;17.20;;;6.78;;
33802;SDS011;20110;53.120;5.786;2023-07-02T05:12:17;14.85;;;6.13;;
33802;SDS011;20110;53.120;5.786;2023-07-02T05:14:44;16.23;;;5.80;;
33802;SDS011;20110;53.120;5.786;2023-07-02T05:17:11;22.20;;;6.15;;
33802;SDS011;20110;53.120;5.786;2023-07-02T05:19:39;25.17;;;6.40;;
33802;SDS011;20110;53.120;5.786;2023-07-02T05:22:06;20.95;;;6.50;;
33802;SDS011;20110;53.120;5.786;2023-07-02T05:24:33;19.30;;;6.90;;
33802;SDS011;20110;53.120;5.786;2023-07-02T05:26:58;18.35;;;5.80;;
33802;SDS011;20110;53.120;5.786;2023-07-02T05:29:24;24.42;;;6.60;;
33802;SDS011;20110;53.120;5.786;2023-07-02T05:31:50;24.40;;;6.05;;
33802;SDS011;20110;53.120;5.786;2023-07-02T05:34:16;16.65;;;6.40;;
33802;SDS011;20110;53.120;5.786;2023-07-02T05:36:41;17.92;;;6.40;;
33802;SDS011;20110;53.120;5.786;2023-07-02T05:39:07;16.20;;;5.70;;
33802;SDS011;20110;53.120;5.786;2023-07-02T05:41:33;21.25;;;6.25;;
33802;SDS011;20110;53.120;5.786;2023-07-02T05:43:59;10.95;;;5.93;;
33802;SDS011;20110;53.120;5.786;2023-07-02T05:46:25;15.70;;;5.72;;
33802;SDS011;20110;53.120;5.786;2023-07-02T05:48:51;12.63;;;5.80;;
33802;SDS011;20110;53.120;5.786;2023-07-02T05:51:21;15.40;;;5.18;;
33802;SDS011;20110;53.120;5.786;2023-07-02T05:53:47;15.65;;;5.00;;
33802;SDS011;20110;53.120;5.786;2023-07-02T05:56:13;12.30;;;5.13;;
33802;SDS011;20110;53.120;5.786;2023-07-02T05:58:39;17.58;;;5.75;;
33802;SDS011;20110;53.120;5.786;2023-07-02T06:01:05;25.20;;;6.50;;
33802;SDS011;20110;53.120;5.786;2023-07-02T06:03:31;34.53;;;6.60;;
33802;SDS011;20110;53.120;5.786;2023-07-02T06:05:58;17.33;;;4.70;;
33802;SDS011;20110;53.120;5.786;2023-07-02T06:08:23;15.55;;;5.35;;
33802;SDS011;20110;53.120;5.786;2023-07-02T06:10:49;17.05;;;5.05;;
33802;SDS011;20110;53.120;5.786;2023-07-02T06:13:16;20.45;;;5.28;;
33802;SDS011;20110;53.120;5.786;2023-07-02T06:15:42;16.45;;;5.85;;
33802;SDS011;20110;53.120;5.786;2023-07-02T06:18:08;17.20;;;4.75;;
33802;SDS011;20110;53.120;5.786;2023-07-02T06:20:34;12.48;;;4.25;;
33802;SDS011;20110;53.120;5.786;2023-07-02T06:23:00;16.27;;;4.80;;
33802;SDS011;20110;53.120;5.786;2023-07-02T06:25:26;20.73;;;4.47;;
33802;SDS011;20110;53.120;5.786;2023-07-02T06:27:52;7.03;;;4.65;;
33802;SDS011;20110;53.120;5.786;2023-07-02T06:30:21;15.95;;;4.97;;
33802;SDS011;20110;53.120;5.786;2023-07-02T06:32:47;12.40;;;4.18;;
33802;SDS011;20110;53.120;5.786;2023-07-02T06:35:13;12.82;;;4.03;;
33802;SDS011;20110;53.120;5.786;2023-07-02T06:37:39;11.95;;;3.90;;
33802;SDS011;20110;53.120;5.786;2023-07-02T06:40:05;10.27;;;4.25;;
33802;SDS011;20110;53.120;5.786;2023-07-02T06:42:33;21.73;;;4.63;;
33802;SDS011;20110;53.120;5.786;2023-07-02T06:45:01;7.97;;;3.85;;
33802;SDS011;20110;53.120;5.786;2023-07-02T06:47:28;15.85;;;4.03;;
33802;SDS011;20110;53.120;5.786;2023-07-02T06:49:53;11.90;;;3.67;;
33802;SDS011;20110;53.120;5.786;2023-07-02T06:52:19;12.55;;;3.17;;
33802;SDS011;20110;53.120;5.786;2023-07-02T06:54:45;17.52;;;4.18;;
33802;SDS011;20110;53.120;5.786;2023-07-02T06:57:15;13.35;;;4.32;;
33802;SDS011;20110;53.120;5.786;2023-07-02T06:59:40;14.55;;;6.53;;
33802;SDS011;20110;53.120;5.786;2023-07-02T07:02:08;17.48;;;4.28;;
33802;SDS011;20110;53.120;5.786;2023-07-02T07:04:34;14.88;;;4.55;;
33802;SDS011;20110;53.120;5.786;2023-07-02T07:07:00;10.68;;;4.07;;
33802;SDS011;20110;53.120;5.786;2023-07-02T07:09:27;12.75;;;3.75;;
33802;SDS011;20110;53.120;5.786;2023-07-02T07:11:54;13.95;;;5.15;;
33802;SDS011;20110;53.120;5.786;2023-07-02T07:14:20;13.25;;;3.88;;
33802;SDS011;20110;53.120;5.786;2023-07-02T07:16:46;16.98;;;4.78;;
33802;SDS011;20110;53.120;5.786;2023-07-02T07:19:11;11.73;;;4.18;;
33802;SDS011;20110;53.120;5.786;2023-07-02T07:21:37;12.85;;;4.43;;
33802;SDS011;20110;53.120;5.786;2023-07-02T07:24:03;10.50;;;4.10;;
33802;SDS011;20110;53.120;5.786;2023-07-02T07:26:30;13.43;;;3.75;;
33802;SDS011;20110;53.120;5.786;2023-07-02T07:28:55;12.40;;;5.72;;
33802;SDS011;20110;53.120;5.786;2023-07-02T07:31:22;15.73;;;8.30;;
33802;SDS011;20110;53.120;5.786;2023-07-02T07:33:49;12.45;;;5.32;;
33802;SDS011;20110;53.120;5.786;2023-07-02T07:36:15;12.98;;;4.60;;
33802;SDS011;20110;53.120;5.786;2023-07-02T07:38:42;12.75;;;4.82;;
33802;SDS011;20110;53.120;5.786;2023-07-02T07:41:09;14.75;;;5.00;;
33802;SDS011;20110;53.120;5.786;2023-07-02T07:43:35;6.35;;;3.90;;
33802;SDS011;20110;53.120;5.786;2023-07-02T07:46:01;13.38;;;4.18;;
33802;SDS011;20110;53.120;5.786;2023-07-02T07:48:27;16.08;;;4.65;;
33802;SDS011;20110;53.120;5.786;2023-07-02T07:50:52;11.63;;;4.97;;
33802;SDS011;20110;53.120;5.786;2023-07-02T07:53:18;16.08;;;4.30;;
33802;SDS011;20110;53.120;5.786;2023-07-02T07:55:44;11.63;;;3.80;;
33802;SDS011;20110;53.120;5.786;2023-07-02T07:58:10;12.82;;;4.88;;
33802;SDS011;20110;53.120;5.786;2023-07-02T08:00:36;17.30;;;5.13;;
33802;SDS011;20110;53.120;5.786;2023-07-02T08:03:02;10.95;;;4.53;;
33802;SDS011;20110;53.120;5.786;2023-07-02T08:05:28;28.35;;;6.47;;
33802;SDS011;20110;53.120;5.786;2023-07-02T08:07:56;14.70;;;3.78;;
33802;SDS011;20110;53.120;5.786;2023-07-02T08:10:23;11.85;;;7.13;;
33802;SDS011;20110;53.120;5.786;2023-07-02T08:12:50;11.00;;;3.92;;
33802;SDS011;20110;53.120;5.786;2023-07-02T08:15:17;10.85;;;3.88;;
33802;SDS011;20110;53.120;5.786;2023-07-02T08:17:43;18.23;;;4.72;;
33802;SDS011;20110;53.120;5.786;2023-07-02T08:20:10;19.95;;;4.93;;
33802;SDS011;20110;53.120;5.786;2023-07-02T08:22:40;14.73;;;5.85;;
33802;SDS011;20110;53.120;5.786;2023-07-02T08:25:06;15.20;;;5.15;;
33802;SDS011;20110;53.120;5.786;2023-07-02T08:27:32;10.85;;;4.15;;
33802;SDS011;20110;53.120;5.786;2023-07-02T08:29:59;11.63;;;3.35;;
33802;SDS011;20110;53.120;5.786;2023-07-02T08:32:25;12.40;;;5.45;;
33802;SDS011;20110;53.120;5.786;2023-07-02T08:34:51;10.50;;;5.25;;
33802;SDS011;20110;53.120;5.786;2023-07-02T08:37:17;13.73;;;5.53;;
33802;SDS011;20110;53.120;5.786;2023-07-02T08:39:43;11.60;;;5.43;;
33802;SDS011;20110;53.120;5.786;2023-07-02T08:42:09;12.30;;;4.03;;
33802;SDS011;20110;53.120;5.786;2023-07-02T08:44:35;6.35;;;2.85;;
33802;SDS011;20110;53.120;5.786;2023-07-02T08:47:01;12.82;;;3.97;;
33802;SDS011;20110;53.120;5.786;2023-07-02T08:49:28;10.65;;;3.80;;
33802;SDS011;20110;53.120;5.786;2023-07-02T08:51:54;15.30;;;4.40;;
33802;SDS011;20110;53.120;5.786;2023-07-02T08:54:20;10.45;;;3.88;;
33802;SDS011;20110;53.120;5.786;2023-07-02T08:56:46;12.73;;;3.17;;
33802;SDS011;20110;53.120;5.786;2023-07-02T08:59:12;9.80;;;3.85;;
33802;SDS011;20110;53.120;5.786;2023-07-02T09:01:48;10.65;;;3.53;;
33802;SDS011;20110;53.120;5.786;2023-07-02T09:04:17;12.88;;;3.67;;
33802;SDS011;20110;53.120;5.786;2023-07-02T09:07:06;14.02;;;3.97;;
33802;SDS011;20110;53.120;5.786;2023-07-02T09:09:49;6.90;;;4.07;;
33802;SDS011;20110;53.120;5.786;2023-07-02T09:12:49;16.48;;;5.22;;
33802;SDS011;20110;53.120;5.786;2023-07-02T09:15:07;16.92;;;4.05;;
33802;SDS011;20110;53.120;5.786;2023-07-02T09:17:34;8.23;;;3.33;;
33802;SDS011;20110;53.120;5.786;2023-07-02T09:20:05;12.27;;;4.68;;
33802;SDS011;20110;53.120;5.786;2023-07-02T09:22:34;10.15;;;5.03;;
33802;SDS011;20110;53.120;5.786;2023-07-02T09:25:01;18.08;;;4.28;;
33802;SDS011;20110;53.120;5.786;2023-07-02T09:27:38;10.45;;;4.72;;
33802;SDS011;20110;53.120;5.786;2023-07-02T09:32:34;16.00;;;4.90;;
33802;SDS011;20110;53.120;5.786;2023-07-02T09:35:00;12.55;;;5.10;;
33802;SDS011;20110;53.120;5.786;2023-07-02T09:37:27;9.50;;;4.53;;
33802;SDS011;20110;53.120;5.786;2023-07-02T09:39:54;13.68;;;4.40;;
33802;SDS011;20110;53.120;5.786;2023-07-02T09:42:22;10.35;;;4.28;;
33802;SDS011;20110;53.120;5.786;2023-07-02T09:44:54;14.50;;;4.65;;
33802;SDS011;20110;53.120;5.786;2023-07-02T09:47:23;13.65;;;3.97;;
33802;SDS011;20110;53.120;5.786;2023-07-02T09:52:20;12.82;;;4.32;;
33802;SDS011;20110;53.120;5.786;2023-07-02T09:54:48;13.60;;;5.25;;
33802;SDS011;20110;53.120;5.786;2023-07-02T09:57:14;17.35;;;4.13;;
33802;SDS011;20110;53.120;5.786;2023-07-02T09:59:40;12.52;;;3.58;;
33802;SDS011;20110;53.120;5.786;2023-07-02T10:02:08;11.77;;;4.63;;
33802;SDS011;20110;53.120;5.786;2023-07-02T10:04:42;12.90;;;4.22;;
33802;SDS011;20110;53.120;5.786;2023-07-02T10:09:39;13.10;;;3.42;;
33802;SDS011;20110;53.120;5.786;2023-07-02T10:12:22;9.27;;;3.92;;
33802;SDS011;20110;53.120;5.786;2023-07-02T10:14:51;19.65;;;4.15;;
33802;SDS011;20110;53.120;5.786;2023-07-02T10:17:23;15.10;;;3.70;;
33802;SDS011;20110;53.120;5.786;2023-07-02T10:19:53;7.57;;;4.82;;
33802;SDS011;20110;53.120;5.786;2023-07-02T10:22:20;8.10;;;4.80;;
33802;SDS011;20110;53.120;5.786;2023-07-02T10:24:51;8.50;;;3.08;;
33802;SDS011;20110;53.120;5.786;2023-07-02T10:27:34;5.65;;;3.58;;
33802;SDS011;20110;53.120;5.786;2023-07-02T10:30:05;11.07;;;3.13;;
33802;SDS011;20110;53.120;5.786;2023-07-02T10:32:34;9.25;;;3.28;;
33802;SDS011;20110;53.120;5.786;2023-07-02T10:35:12;10.70;;;3.35;;
33802;SDS011;20110;53.120;5.786;2023-07-02T10:37:43;5.82;;;2.80;;
33802;SDS011;20110;53.120;5.786;2023-07-02T10:40:10;13.05;;;3.10;;
33802;SDS011;20110;53.120;5.786;2023-07-02T10:42:47;15.63;;;3.15;;
33802;SDS011;20110;53.120;5.786;2023-07-02T10:45:15;13.75;;;3.88;;
33802;SDS011;20110;53.120;5.786;2023-07-02T10:47:42;10.15;;;3.78;;
33802;SDS011;20110;53.120;5.786;2023-07-02T10:52:44;8.18;;;6.53;;
33802;SDS011;20110;53.120;5.786;2023-07-02T10:55:10;12.38;;;3.58;;
33802;SDS011;20110;53.120;5.786;2023-07-02T10:57:44;10.13;;;7.97;;
33802;SDS011;20110;53.120;5.786;2023-07-02T11:00:10;7.60;;;5.07;;
33802;SDS011;20110;53.120;5.786;2023-07-02T11:02:40;10.15;;;3.88;;
33802;SDS011;20110;53.120;5.786;2023-07-02T11:05:08;9.57;;;3.05;;
33802;SDS011;20110;53.120;5.786;2023-07-02T11:07:39;9.20;;;3.58;;
33802;SDS011;20110;53.120;5.786;2023-07-02T11:10:09;8.38;;;3.15;;
33802;SDS011;20110;53.120;5.786;2023-07-02T11:12:43;6.57;;;2.90;;
33802;SDS011;20110;53.120;5.786;2023-07-02T11:15:16;12.10;;;4.15;;
33802;SDS011;20110;53.120;5.786;2023-07-02T11:17:46;13.85;;;3.60;;
33802;SDS011;20110;53.120;5.786;2023-07-02T11:20:13;9.27;;;3.15;;
33802;SDS011;20110;53.120;5.786;2023-07-02T11:22:40;9.65;;;3.13;;
33802;SDS011;20110;53.120;5.786;2023-07-02T11:25:16;7.03;;;3.25;;
33802;SDS011;20110;53.120;5.786;2023-07-02T11:27:45;7.40;;;3.47;;
33802;SDS011;20110;53.120;5.786;2023-07-02T11:30:11;6.97;;;3.33;;
33802;SDS011;20110;53.120;5.786;2023-07-02T11:35:20;15.82;;;2.85;;
33802;SDS011;20110;53.120;5.786;2023-07-02T11:37:48;9.07;;;3.13;;
33802;SDS011;20110;53.120;5.786;2023-07-02T11:40:14;8.07;;;3.80;;
33802;SDS011;20110;53.120;5.786;2023-07-02T11:42:43;7.68;;;3.45;;
33802;SDS011;20110;53.120;5.786;2023-07-02T11:45:09;10.13;;;3.00;;
33802;SDS011;20110;53.120;5.786;2023-07-02T11:47:35;12.20;;;2.85;;
33802;SDS011;20110;53.120;5.786;2023-07-02T11:50:03;13.07;;;3.63;;
33802;SDS011;20110;53.120;5.786;2023-07-02T11:52:30;9.70;;;4.18;;
33802;SDS011;20110;53.120;5.786;2023-07-02T11:54:56;17.15;;;4.55;;
33802;SDS011;20110;53.120;5.786;2023-07-02T11:57:22;11.50;;;3.65;;
33802;SDS011;20110;53.120;5.786;2023-07-02T11:59:48;13.13;;;3.67;;
33802;SDS011;20110;53.120;5.786;2023-07-02T12:02:15;12.10;;;4.05;;
33802;SDS011;20110;53.120;5.786;2023-07-02T12:04:41;12.65;;;3.97;;
33802;SDS011;20110;53.120;5.786;2023-07-02T12:07:07;15.30;;;3.97;;
33802;SDS011;20110;53.120;5.786;2023-07-02T12:09:33;10.60;;;4.68;;
33802;SDS011;20110;53.120;5.786;2023-07-02T12:11:59;14.02;;;4.32;;
33802;SDS011;20110;53.120;5.786;2023-07-02T12:14:24;12.77;;;5.95;;
33802;SDS011;20110;53.120;5.786;2023-07-02T12:16:51;10.93;;;3.95;;
33802;SDS011;20110;53.120;5.786;2023-07-02T12:19:17;12.13;;;4.75;;
33802;SDS011;20110;53.120;5.786;2023-07-02T12:21:43;19.90;;;5.60;;
33802;SDS011;20110;53.120;5.786;2023-07-02T12:24:09;11.52;;;5.50;;
33802;SDS011;20110;53.120;5.786;2023-07-02T12:26:36;16.60;;;4.97;;
33802;SDS011;20110;53.120;5.786;2023-07-02T12:29:02;10.35;;;5.55;;
33802;SDS011;20110;53.120;5.786;2023-07-02T12:31:29;18.90;;;4.75;;
33802;SDS011;20110;53.120;5.786;2023-07-02T12:33:56;9.77;;;4.90;;
33802;SDS011;20110;53.120;5.786;2023-07-02T12:36:23;9.43;;;4.45;;
33802;SDS011;20110;53.120;5.786;2023-07-02T12:38:49;22.27;;;6.30;;
33802;SDS011;20110;53.120;5.786;2023-07-02T12:41:14;9.95;;;5.38;;
33802;SDS011;20110;53.120;5.786;2023-07-02T12:43:40;9.93;;;4.20;;
33802;SDS011;20110;53.120;5.786;2023-07-02T12:46:06;12.35;;;4.45;;
33802;SDS011;20110;53.120;5.786;2023-07-02T12:48:32;15.20;;;4.90;;
33802;SDS011;20110;53.120;5.786;2023-07-02T12:50:59;18.83;;;5.72;;
33802;SDS011;20110;53.120;5.786;2023-07-02T12:53:25;14.23;;;5.40;;
33802;SDS011;20110;53.120;5.786;2023-07-02T12:55:52;15.18;;;5.38;;
33802;SDS011;20110;53.120;5.786;2023-07-02T12:58:19;10.25;;;5.43;;
33802;SDS011;20110;53.120;5.786;2023-07-02T13:00:46;10.65;;;7.28;;
33802;SDS011;20110;53.120;5.786;2023-07-02T13:03:13;14.88;;;5.18;;
33802;SDS011;20110;53.120;5.786;2023-07-02T13:05:42;11.77;;;5.57;;
33802;SDS011;20110;53.120;5.786;2023-07-02T13:08:07;14.40;;;4.55;;
33802;SDS011;20110;53.120;5.786;2023-07-02T13:10:35;12.20;;;6.47;;
33802;SDS011;20110;53.120;5.786;2023-07-02T13:13:02;16.67;;;5.43;;
33802;SDS011;20110;53.120;5.786;2023-07-02T13:15:28;11.45;;;5.78;;
33802;SDS011;20110;53.120;5.786;2023-07-02T13:17:54;11.60;;;4.57;;
33802;SDS011;20110;53.120;5.786;2023-07-02T13:20:20;8.80;;;4.30;;
33802;SDS011;20110;53.120;5.786;2023-07-02T13:22:46;10.73;;;6.93;;
33802;SDS011;20110;53.120;5.786;2023-07-02T13:25:11;14.57;;;5.30;;
33802;SDS011;20110;53.120;5.786;2023-07-02T13:27:37;14.68;;;9.35;;
33802;SDS011;20110;53.120;5.786;2023-07-02T13:30:03;11.18;;;4.63;;
33802;SDS011;20110;53.120;5.786;2023-07-02T13:32:30;15.27;;;5.78;;
33802;SDS011;20110;53.120;5.786;2023-07-02T13:34:56;16.27;;;5.22;;
33802;SDS011;20110;53.120;5.786;2023-07-02T13:37:21;18.48;;;6.65;;
33802;SDS011;20110;53.120;5.786;2023-07-02T13:39:48;13.05;;;6.45;;
33802;SDS011;20110;53.120;5.786;2023-07-02T13:42:14;15.98;;;5.38;;
33802;SDS011;20110;53.120;5.786;2023-07-02T13:44:41;17.48;;;5.75;;
33802;SDS011;20110;53.120;5.786;2023-07-02T13:47:07;11.45;;;4.93;;
33802;SDS011;20110;53.120;5.786;2023-07-02T13:49:33;9.65;;;4.43;;
33802;SDS011;20110;53.120;5.786;2023-07-02T13:52:00;11.40;;;3.90;;
33802;SDS011;20110;53.120;5.786;2023-07-02T13:54:26;15.30;;;4.45;;
33802;SDS011;20110;53.120;5.786;2023-07-02T13:56:52;9.20;;;6.07;;
33802;SDS011;20110;53.120;5.786;2023-07-02T13:59:18;8.95;;;6.90;;
33802;SDS011;20110;53.120;5.786;2023-07-02T14:01:45;9.85;;;4.93;;
33802;SDS011;20110;53.120;5.786;2023-07-02T14:04:12;7.57;;;5.88;;
33802;SDS011;20110;53.120;5.786;2023-07-02T14:06:40;7.75;;;3.92;;
33802;SDS011;20110;53.120;5.786;2023-07-02T14:09:06;8.60;;;4.60;;
33802;SDS011;20110;53.120;5.786;2023-07-02T14:11:33;13.43;;;5.18;;
33802;SDS011;20110;53.120;5.786;2023-07-02T14:14:02;7.20;;;4.35;;
33802;SDS011;20110;53.120;5.786;2023-07-02T14:16:28;15.30;;;6.10;;
33802;SDS011;20110;53.120;5.786;2023-07-02T14:18:53;6.55;;;3.80;;
33802;SDS011;20110;53.120;5.786;2023-07-02T14:21:19;10.93;;;5.25;;
33802;SDS011;20110;53.120;5.786;2023-07-02T14:23:45;16.98;;;4.78;;
33802;SDS011;20110;53.120;5.786;2023-07-02T14:26:11;9.48;;;5.00;;
33802;SDS011;20110;53.120;5.786;2023-07-02T14:28:38;11.88;;;10.25;;
33802;SDS011;20110;53.120;5.786;2023-07-02T14:31:04;13.00;;;4.85;;
33802;SDS011;20110;53.120;5.786;2023-07-02T14:33:32;12.85;;;4.63;;
33802;SDS011;20110;53.120;5.786;2023-07-02T14:36:00;9.05;;;4.53;;
33802;SDS011;20110;53.120;5.786;2023-07-02T14:38:28;12.18;;;4.45;;
33802;SDS011;20110;53.120;5.786;2023-07-02T14:40:54;11.20;;;5.13;;
33802;SDS011;20110;53.120;5.786;2023-07-02T14:43:22;11.07;;;4.07;;
33802;SDS011;20110;53.120;5.786;2023-07-02T14:45:52;14.27;;;4.70;;
33802;SDS011;20110;53.120;5.786;2023-07-02T14:48:20;7.68;;;4.03;;